createdAt,value
2023-04-15T00:01:10.153Z,2.00
2023-04-15T00:04:13.353Z,2.17
2023-04-15T00:07:16.586Z,9.33
2023-04-15T00:10:21.168Z,7.03
2023-04-15T00:13:24.274Z,3.73
2023-04-15T00:16:27.360Z,2.80
2023-04-15T00:19:30.722Z,2.27
2023-04-15T00:22:33.803Z,1.90
2023-04-15T00:25:38.682Z,2.00
2023-04-15T00:28:41.741Z,1.80
2023-04-15T00:31:44.809Z,2.00
2023-04-15T00:34:47.833Z,1.90
2023-04-15T00:37:51.552Z,1.73
2023-04-15T00:40:56.667Z,1.90
2023-04-15T00:44:00.464Z,1.97
2023-04-15T00:47:05.170Z,1.77
2023-04-15T00:50:10.717Z,2.03
2023-04-15T00:53:13.770Z,1.70
2023-04-15T00:56:18.638Z,2.00
2023-04-15T00:59:22.457Z,2.33
2023-04-15T01:02:26.357Z,1.97
2023-04-15T01:05:30.284Z,1.77
2023-04-15T01:08:33.369Z,1.93
2023-04-15T01:11:37.820Z,1.80
2023-04-15T01:14:40.946Z,2.03
2023-04-15T01:17:44.129Z,1.60
2023-04-15T01:20:47.266Z,1.67
2023-04-15T01:23:52.415Z,2.20
2023-04-15T01:26:56.888Z,1.90
2023-04-15T01:29:59.970Z,1.63
2023-04-15T01:33:03.201Z,1.60
2023-04-15T01:36:08.572Z,1.90
2023-04-15T01:39:11.764Z,2.13
2023-04-15T01:42:16.218Z,2.00
2023-04-15T01:45:19.379Z,1.90
2023-04-15T01:48:22.459Z,2.20
2023-04-15T01:51:25.540Z,3.13
2023-04-15T01:54:28.589Z,2.90
2023-04-15T01:57:33.082Z,2.47
2023-04-15T02:00:36.383Z,2.03
2023-04-15T02:03:39.898Z,2.43
2023-04-15T02:06:43.280Z,2.10
2023-04-15T02:09:46.512Z,2.00
2023-04-15T02:12:51.067Z,1.87
2023-04-15T02:15:56.423Z,1.50
2023-04-15T02:18:59.815Z,2.77
2023-04-15T02:22:03.081Z,1.70
2023-04-15T02:25:07.197Z,1.60
2023-04-15T02:28:11.702Z,2.17
2023-04-15T02:31:14.808Z,2.57
2023-04-15T02:34:18.021Z,1.80
2023-04-15T02:37:21.481Z,1.90
2023-04-15T02:40:24.574Z,1.60
2023-04-15T02:43:29.033Z,1.80
2023-04-15T02:46:32.363Z,2.50
2023-04-15T02:49:35.878Z,2.07
2023-04-15T02:52:39.009Z,1.90
2023-04-15T02:55:42.973Z,2.50
2023-04-15T02:58:50.616Z,2.03
2023-04-15T03:01:53.806Z,2.10
2023-04-15T03:04:56.947Z,1.87
2023-04-15T03:08:01.255Z,2.10
2023-04-15T03:11:04.766Z,1.90
2023-04-15T03:14:09.282Z,1.80
2023-04-15T03:17:12.444Z,2.03
2023-04-15T03:20:15.668Z,2.20
2023-04-15T03:23:18.789Z,2.07
2023-04-15T03:26:29.368Z,2.30
2023-04-15T03:29:33.817Z,2.00
2023-04-15T03:32:36.924Z,2.07
2023-04-15T03:35:40.117Z,1.97
2023-04-15T03:38:43.257Z,2.13
2023-04-15T03:41:46.488Z,1.70
2023-04-15T03:44:50.970Z,2.17
2023-04-15T03:47:54.003Z,1.80
2023-04-15T03:50:57.282Z,2.27
2023-04-15T03:54:00.619Z,2.20
2023-04-15T03:57:03.774Z,2.37
2023-04-15T04:00:10.660Z,3.50
2023-04-15T04:03:13.792Z,2.60
2023-04-15T04:06:17.081Z,2.23
2023-04-15T04:09:20.160Z,2.33
2023-04-15T04:12:23.254Z,2.10
2023-04-15T04:15:27.750Z,2.20
2023-04-15T04:18:31.346Z,2.20
2023-04-15T04:21:35.231Z,2.67
2023-04-15T04:24:38.298Z,2.40
2023-04-15T04:27:41.405Z,2.80
2023-04-15T04:30:46.270Z,2.20
2023-04-15T04:33:49.350Z,2.87
2023-04-15T04:36:52.402Z,2.90
2023-04-15T04:39:55.591Z,2.80
2023-04-15T04:42:58.842Z,3.00
2023-04-15T04:46:03.325Z,2.63
2023-04-15T04:49:06.417Z,3.00
2023-04-15T04:52:09.576Z,2.73
2023-04-15T04:55:12.664Z,3.07
2023-04-15T04:58:15.874Z,3.13
2023-04-15T05:01:20.442Z,3.13
2023-04-15T05:04:24.004Z,3.40
2023-04-15T05:07:27.519Z,3.07
2023-04-15T05:10:30.632Z,3.30
2023-04-15T05:13:33.693Z,2.90
2023-04-15T05:16:38.169Z,3.67
2023-04-15T05:19:41.269Z,3.53
2023-04-15T05:22:44.387Z,3.33
2023-04-15T05:25:47.471Z,3.50
2023-04-15T05:28:50.596Z,4.30
2023-04-15T05:31:54.971Z,3.93
2023-04-15T05:34:58.093Z,3.60
2023-04-15T05:38:01.128Z,4.40
2023-04-15T05:41:04.568Z,4.23
2023-04-15T05:44:07.656Z,3.93
2023-04-15T05:47:12.071Z,3.90
2023-04-15T05:50:15.144Z,3.90
2023-04-15T05:53:18.274Z,4.33
2023-04-15T05:56:21.456Z,4.70
2023-04-15T05:59:24.601Z,4.20
2023-04-15T06:02:29.179Z,4.83
2023-04-15T06:05:32.316Z,5.13
2023-04-15T06:08:35.500Z,5.20
2023-04-15T06:11:38.683Z,4.70
2023-04-15T06:14:41.783Z,5.10
2023-04-15T06:17:46.340Z,5.27
2023-04-15T06:20:49.607Z,5.47
2023-04-15T06:23:52.692Z,4.70
2023-04-15T06:26:56.012Z,4.90
2023-04-15T06:29:59.140Z,5.20
2023-04-15T06:33:05.506Z,5.10
2023-04-15T06:36:09.049Z,4.60
2023-04-15T06:39:12.351Z,5.87
2023-04-15T06:42:15.589Z,4.60
2023-04-15T06:45:18.893Z,6.17
2023-04-15T06:48:23.495Z,4.60
2023-04-15T06:51:27.143Z,4.90
2023-04-15T06:54:30.304Z,5.00
2023-04-15T06:57:34.982Z,4.33
2023-04-15T07:00:39.248Z,4.83
2023-04-15T07:03:43.753Z,5.57
2023-04-15T07:06:46.880Z,4.27
2023-04-15T07:09:50.162Z,5.13
2023-04-15T07:12:53.330Z,4.13
2023-04-15T07:15:56.903Z,4.70
2023-04-15T07:19:01.665Z,4.10
2023-04-15T07:22:05.006Z,3.83
2023-04-15T07:25:09.522Z,4.20
2023-04-15T07:28:12.637Z,4.60
2023-04-15T07:31:16.557Z,3.60
2023-04-15T07:34:21.895Z,4.50
2023-04-15T07:37:25.119Z,4.10
2023-04-15T07:40:28.329Z,4.33
2023-04-15T07:43:31.523Z,3.90
2023-04-15T07:46:34.750Z,5.27
2023-04-15T07:49:39.308Z,4.50
2023-04-15T07:52:42.356Z,5.00
2023-04-15T07:55:45.439Z,5.60
2023-04-15T07:58:48.572Z,5.10
2023-04-15T08:01:51.802Z,4.80
2023-04-15T08:04:56.390Z,4.47
2023-04-15T08:07:59.762Z,4.43
2023-04-15T08:11:02.866Z,4.60
2023-04-15T08:14:06.040Z,4.10
2023-04-15T08:17:09.421Z,4.37
2023-04-15T08:20:14.494Z,4.20
2023-04-15T08:23:18.012Z,4.43
2023-04-15T08:26:22.301Z,3.67
2023-04-15T08:29:25.356Z,4.93
2023-04-15T08:32:28.510Z,4.10
2023-04-15T08:35:35.848Z,3.37
2023-04-15T08:38:38.996Z,3.63
2023-04-15T08:41:47.732Z,3.30
2023-04-15T08:44:51.794Z,4.07
2023-04-15T08:47:58.260Z,3.77
2023-04-15T08:51:03.133Z,3.67
2023-04-15T08:54:06.573Z,3.27
2023-04-15T08:57:09.776Z,2.90
2023-04-15T09:00:14.187Z,4.27
2023-04-15T09:03:19.216Z,2.77
2023-04-15T09:06:24.305Z,2.97
2023-04-15T09:09:29.185Z,4.60
2023-04-15T09:12:32.361Z,3.80
2023-04-15T09:15:39.201Z,3.10
2023-04-15T09:18:42.508Z,3.00
2023-04-15T09:21:48.868Z,6.73
2023-04-15T09:24:52.374Z,3.47
2023-04-15T09:27:57.573Z,2.70
2023-04-15T09:31:01.821Z,2.70
2023-04-15T09:34:05.121Z,3.00
2023-04-15T09:37:11.035Z,3.37
2023-04-15T09:40:15.056Z,3.73
2023-04-15T09:43:18.313Z,2.93
2023-04-15T09:46:21.599Z,2.67
2023-04-15T09:49:24.707Z,2.80
2023-04-15T09:52:29.739Z,3.67
2023-04-15T09:55:34.621Z,3.30
2023-04-15T09:58:38.879Z,3.07
2023-04-15T10:01:43.648Z,3.53
2023-04-15T10:04:48.686Z,3.27
2023-04-15T10:07:53.203Z,3.00
2023-04-15T10:10:56.791Z,3.37
2023-04-15T10:14:00.405Z,2.60
2023-04-15T10:17:05.623Z,2.70
2023-04-15T10:20:12.584Z,2.13
2023-04-15T10:23:17.716Z,2.73
2023-04-15T10:26:21.340Z,2.67
2023-04-15T10:29:26.821Z,1.90
2023-04-15T10:32:30.687Z,3.20
2023-04-15T10:48:28.802Z,2.73
2023-04-15T10:51:32.742Z,2.20
2023-04-15T10:54:38.940Z,2.50
2023-04-15T10:57:43.194Z,3.00
2023-04-15T11:00:52.328Z,2.93
2023-04-15T11:03:57.205Z,3.00
2023-04-15T11:07:07.695Z,2.87
2023-04-15T11:10:56.085Z,3.43
2023-04-15T11:13:59.219Z,4.20
2023-04-15T11:17:02.538Z,2.97
2023-04-15T11:20:09.742Z,3.00
2023-04-15T11:23:14.316Z,2.90
2023-04-15T11:26:18.962Z,3.37
2023-04-15T11:29:22.219Z,2.40
2023-04-15T11:32:25.312Z,2.80
2023-04-15T11:35:30.297Z,2.87
2023-04-15T11:38:35.187Z,3.30
2023-04-15T11:41:38.315Z,2.50
2023-04-15T11:44:41.453Z,2.23
2023-04-15T11:47:44.769Z,2.23
2023-04-15T11:50:55.181Z,2.73
2023-04-15T11:53:58.490Z,2.43
2023-04-15T11:57:02.859Z,2.63
2023-04-15T12:00:07.101Z,2.83
2023-04-15T12:03:14.658Z,2.43
2023-04-15T12:06:20.658Z,2.53
2023-04-15T12:09:23.773Z,2.63
2023-04-15T12:12:28.802Z,2.83
2023-04-15T12:15:34.845Z,2.30
2023-04-15T12:18:39.400Z,2.60
2023-04-15T12:21:46.797Z,2.33
2023-04-15T12:24:57.842Z,2.73
2023-04-15T12:28:01.113Z,3.13
2023-04-15T12:31:09.381Z,4.00
2023-04-15T12:34:12.508Z,2.20
2023-04-15T12:37:17.019Z,2.60
2023-04-15T12:40:21.680Z,3.23
2023-04-15T12:43:24.793Z,3.13
2023-04-15T12:46:28.546Z,2.77
2023-04-15T12:49:32.990Z,4.20
2023-04-15T12:52:37.469Z,3.10
2023-04-15T12:55:40.500Z,2.63
2023-04-15T12:58:43.645Z,2.60
2023-04-15T13:01:47.415Z,3.20
2023-04-15T13:04:50.915Z,4.50
2023-04-15T13:07:55.597Z,2.07
2023-04-15T13:10:58.737Z,2.40
2023-04-15T13:14:03.088Z,2.67
2023-04-15T13:17:10.216Z,2.00
2023-04-15T13:20:13.734Z,2.30
2023-04-15T13:23:18.457Z,2.10
2023-04-15T13:26:21.925Z,1.80
2023-04-15T13:29:24.962Z,2.60
2023-04-15T13:32:28.201Z,4.20
2023-04-15T13:35:31.554Z,2.43
2023-04-15T13:38:36.277Z,2.97
2023-04-15T13:41:39.438Z,1.80
2023-04-15T13:44:42.536Z,2.90
2023-04-15T13:47:45.801Z,3.97
2023-04-15T13:50:49.214Z,2.70
2023-04-15T13:53:53.913Z,2.70
2023-04-15T13:56:58.130Z,2.70
2023-04-15T14:00:01.204Z,2.80
2023-04-15T14:03:04.937Z,3.73
2023-04-15T14:06:08.480Z,3.13
2023-04-15T14:09:13.078Z,3.63
2023-04-15T14:12:16.683Z,5.60
2023-04-15T14:15:20.090Z,3.30
2023-04-15T14:18:23.267Z,3.00
2023-04-15T14:21:27.912Z,2.67
2023-04-15T14:24:32.455Z,2.43
2023-04-15T14:27:35.830Z,2.83
2023-04-15T14:30:38.961Z,2.80
2023-04-15T14:33:42.114Z,2.60
2023-04-15T14:36:45.648Z,2.47
2023-04-15T14:39:50.317Z,2.10
2023-04-15T14:42:53.511Z,2.47
2023-04-15T14:45:57.151Z,2.57
2023-04-15T14:49:00.782Z,2.87
2023-04-15T14:52:04.364Z,2.93
2023-04-15T14:55:10.935Z,2.47
2023-04-15T14:58:14.377Z,2.43
2023-04-15T15:01:17.878Z,2.10
2023-04-15T15:04:21.150Z,2.73
2023-04-15T15:07:24.445Z,4.63
2023-04-15T15:10:32.850Z,2.70
2023-04-15T15:13:47.457Z,2.33
2023-04-15T15:16:51.019Z,2.73
2023-04-15T15:19:54.515Z,2.90
2023-04-15T15:22:58.098Z,2.90
2023-04-15T15:26:03.070Z,2.50
2023-04-15T15:29:06.411Z,2.63
2023-04-15T15:32:09.844Z,3.00
2023-04-15T15:35:13.003Z,3.37
2023-04-15T15:38:16.229Z,2.23
2023-04-15T15:41:21.295Z,1.73
2023-04-15T15:44:24.630Z,1.87
2023-04-15T15:47:28.318Z,1.90
2023-04-15T15:50:31.540Z,2.73
2023-04-15T15:53:35.432Z,2.50
2023-04-15T15:56:40.063Z,2.00
2023-04-15T15:59:43.825Z,1.80
2023-04-15T16:05:53.152Z,5.27
2023-04-15T16:08:56.341Z,2.63
2023-04-15T16:12:01.468Z,2.50
2023-04-15T16:15:05.263Z,2.83
2023-04-15T16:18:08.721Z,2.37
2023-04-15T16:21:11.863Z,3.80
2023-04-15T16:24:15.476Z,3.50
2023-04-15T16:27:20.266Z,6.00
2023-04-15T16:30:23.740Z,3.50
2023-04-15T16:33:27.770Z,3.70
2023-04-15T16:36:31.721Z,4.60
2023-04-15T16:39:35.029Z,2.87
2023-04-15T16:42:40.212Z,5.20
2023-04-15T16:45:44.570Z,3.60
2023-04-15T16:48:47.917Z,3.27
2023-04-15T16:51:52.933Z,2.90
2023-04-15T16:54:58.373Z,2.60
2023-04-15T16:58:04.333Z,3.87
2023-04-15T17:01:10.403Z,3.83
2023-04-15T17:04:14.182Z,3.70
2023-04-15T17:07:17.412Z,4.90
2023-04-15T17:10:20.521Z,2.90
2023-04-15T17:13:26.365Z,4.80
2023-04-15T17:16:29.440Z,2.73
2023-04-15T17:19:33.082Z,3.10
2023-04-15T17:22:36.317Z,1.70
2023-04-15T17:25:39.462Z,1.80
2023-04-15T17:28:44.353Z,1.60
2023-04-15T17:31:48.330Z,1.70
2023-04-15T17:34:51.966Z,2.40
2023-04-15T17:37:55.527Z,2.20
2023-04-15T17:40:59.603Z,2.67
2023-04-15T17:44:05.246Z,1.73
2023-04-15T17:47:09.409Z,2.90
2023-04-15T17:50:13.277Z,3.57
2023-04-15T17:53:16.828Z,3.13
2023-04-15T17:56:22.498Z,3.70
2023-04-15T17:59:28.565Z,4.30
2023-04-15T18:02:33.873Z,5.50
2023-04-15T18:05:42.414Z,6.47
2023-04-15T18:08:46.887Z,4.80
2023-04-15T18:11:50.407Z,4.20
2023-04-15T18:14:55.331Z,3.70
2023-04-15T18:18:01.359Z,11.63
2023-04-15T18:21:05.503Z,3.83
2023-04-15T18:24:09.773Z,5.00
2023-04-15T18:27:13.450Z,16.57
2023-04-15T18:30:18.384Z,8.83
2023-04-15T18:33:21.834Z,7.50
2023-04-15T18:36:25.361Z,6.53
2023-04-15T18:39:29.713Z,9.17
2023-04-15T18:42:34.191Z,7.70
2023-04-15T18:45:39.613Z,13.10
2023-04-15T18:48:44.369Z,8.47
2023-04-15T18:51:48.269Z,6.50
2023-04-15T18:54:51.927Z,8.03
2023-04-15T18:57:55.126Z,8.77
2023-04-15T19:01:01.712Z,8.73
2023-04-15T19:04:05.421Z,8.30
2023-04-15T19:07:09.755Z,7.30
2023-04-15T19:10:13.969Z,7.03
2023-04-15T19:13:18.844Z,6.97
2023-04-15T19:16:24.262Z,6.30
2023-04-15T19:19:28.359Z,7.10
2023-04-15T19:22:35.593Z,6.57
2023-04-15T19:25:40.017Z,6.07
2023-04-15T19:28:44.682Z,5.93
2023-04-15T19:31:50.743Z,6.10
2023-04-15T19:34:55.920Z,4.13
2023-04-15T19:38:00.228Z,3.77
2023-04-15T19:41:03.875Z,3.77
2023-04-15T19:44:08.307Z,3.70
2023-04-15T19:47:16.355Z,5.50
2023-04-15T19:50:25.205Z,5.00
2023-04-15T19:53:29.242Z,4.20
2023-04-15T19:56:34.384Z,4.63
2023-04-15T19:59:38.688Z,4.10
2023-04-15T20:02:44.434Z,5.60
2023-04-15T20:05:48.481Z,3.50
2023-04-15T20:08:52.301Z,4.50
2023-04-15T20:12:05.951Z,3.60
2023-04-15T20:15:20.923Z,3.43
2023-04-15T20:18:26.489Z,3.20
2023-04-15T20:21:30.449Z,3.70
2023-04-15T20:24:34.065Z,3.60
2023-04-15T20:27:39.376Z,3.30
2023-04-15T20:30:43.683Z,4.50
2023-04-15T20:33:50.216Z,3.80
2023-04-15T20:37:00.084Z,4.77
2023-04-15T20:40:04.232Z,3.30
2023-04-15T20:43:08.351Z,5.47
2023-04-15T20:46:20.647Z,5.03
2023-04-15T20:49:26.997Z,4.07
2023-04-15T20:52:35.298Z,6.10
2023-04-15T20:55:38.937Z,3.70
2023-04-15T20:58:45.087Z,3.00
2023-04-15T21:01:48.229Z,2.87
2023-04-15T21:04:53.140Z,4.03
2023-04-15T21:07:56.444Z,3.70
2023-04-15T21:10:59.592Z,5.40
2023-04-15T21:14:03.050Z,4.60
2023-04-15T21:17:09.356Z,5.03
2023-04-15T21:20:16.136Z,5.60
2023-04-15T21:23:19.268Z,4.03
2023-04-15T21:26:22.309Z,5.27
2023-04-15T21:29:25.611Z,6.60
2023-04-15T21:32:30.526Z,6.03
2023-04-15T21:35:35.093Z,5.60
2023-04-15T21:38:38.116Z,5.93
2023-04-15T21:41:41.258Z,5.30
2023-04-15T21:44:44.364Z,5.70
2023-04-15T21:48:06.214Z,5.67
2023-04-15T21:51:11.928Z,5.20
2023-04-15T21:54:15.073Z,5.80
2023-04-15T21:57:18.508Z,5.00
2023-04-15T22:00:23.049Z,4.73
2023-04-15T22:03:26.320Z,4.40
2023-04-15T22:06:34.630Z,5.87
2023-04-15T22:09:37.767Z,5.03
2023-04-15T22:12:42.233Z,5.47
2023-04-15T22:15:45.418Z,4.83
2023-04-15T22:18:48.510Z,5.10
2023-04-15T22:21:53.014Z,4.80
2023-04-15T22:24:56.062Z,6.73
2023-04-15T22:27:59.204Z,7.30
2023-04-15T22:31:02.523Z,7.10
2023-04-15T22:34:05.728Z,5.53
2023-04-15T22:37:11.623Z,5.93
2023-04-15T22:40:15.206Z,5.87
2023-04-15T22:43:18.255Z,6.23
2023-04-15T22:46:21.368Z,5.90
2023-04-15T22:49:24.492Z,5.20
2023-04-15T22:52:30.974Z,5.80
2023-04-15T22:55:34.517Z,4.83
2023-04-15T22:58:37.613Z,5.03
2023-04-15T23:01:40.899Z,4.87
2023-04-15T23:04:44.143Z,5.90
2023-04-15T23:07:48.624Z,6.20
2023-04-15T23:10:51.729Z,6.23
2023-04-15T23:13:54.766Z,4.70
2023-04-15T23:16:59.397Z,5.87
2023-04-15T23:20:02.790Z,4.60
2023-04-15T23:23:07.229Z,4.90
2023-04-15T23:26:10.366Z,4.63
2023-04-15T23:29:13.500Z,5.23
2023-04-15T23:32:16.635Z,4.60
2023-04-15T23:35:19.704Z,5.50
2023-04-15T23:38:24.191Z,4.53
2023-04-15T23:41:27.325Z,5.23
2023-04-15T23:44:30.413Z,4.20
2023-04-15T23:47:33.549Z,5.00
2023-04-15T23:50:36.615Z,4.30
2023-04-15T23:53:41.090Z,4.37
2023-04-15T23:56:44.200Z,4.30
2023-04-15T23:59:47.439Z,4.27
